Time;durP1;ratioP1;P1;durP2;ratioP2;P2;SDS_P1;SDS_P2;PMS_P1;PMS_P2;Temp;Humidity;BMP_temperature;BMP_pressure;BME280_temperature;BME280_humidity;BME280_pressure;Samples;Min_cycle;Max_cycle;Signal;HPM_P1;HPM_P2
2022/07/28 00:00:26;;;;;;;8.75;4.45;;;10.50;99.90;;;;;;4992269;28;20104;-71
2022/07/28 00:02:52;;;;;;;7.93;3.80;;;10.50;99.90;;;;;;4974912;28;20097;-71
2022/07/28 00:05:18;;;;;;;9.40;4.43;;;10.40;99.90;;;;;;4991973;28;20561;-71
2022/07/28 00:07:45;;;;;;;8.73;4.63;;;10.30;99.90;;;;;;4961930;28;20136;-71
2022/07/28 00:10:12;;;;;;;9.45;4.90;;;10.30;99.90;;;;;;4993868;28;20316;-71
2022/07/28 00:12:38;;;;;;;7.13;4.85;;;10.30;99.90;;;;;;5011886;28;20041;-71
2022/07/28 00:15:05;;;;;;;6.55;5.38;;;10.30;99.90;;;;;;4994073;28;20045;-71
2022/07/28 00:17:31;;;;;;;8.40;4.50;;;10.30;99.90;;;;;;4979048;28;20042;-71
2022/07/28 00:19:57;;;;;;;6.68;4.93;;;10.30;99.90;;;;;;5015559;28;20157;-71
2022/07/28 00:22:23;;;;;;;8.43;5.07;;;10.20;99.90;;;;;;4981918;28;20104;-71
2022/07/28 00:24:49;;;;;;;7.43;4.63;;;10.30;99.90;;;;;;5015509;28;20042;-71
2022/07/28 00:27:16;;;;;;;6.97;4.95;;;10.20;99.90;;;;;;5010217;28;20042;-71
2022/07/28 00:29:42;;;;;;;9.55;4.80;;;10.20;99.90;;;;;;4975808;28;20046;-72
2022/07/28 00:32:08;;;;;;;8.85;6.25;;;10.20;99.90;;;;;;4978297;28;20038;-72
2022/07/28 00:34:34;;;;;;;8.57;5.30;;;10.20;99.90;;;;;;4995909;28;20459;-72
2022/07/28 00:36:59;;;;;;;6.97;5.07;;;10.10;99.90;;;;;;4995400;28;20501;-72
2022/07/28 00:39:25;;;;;;;7.07;5.57;;;10.10;99.90;;;;;;4978170;28;20042;-72
2022/07/28 00:41:51;;;;;;;226.13;15.30;;;10.00;99.90;;;;;;4995406;28;20038;-72
2022/07/28 00:44:17;;;;;;;7.40;5.20;;;10.00;99.90;;;;;;4995505;28;20081;-72
2022/07/28 00:46:43;;;;;;;6.15;4.70;;;9.90;99.90;;;;;;4961739;28;20476;-72
2022/07/28 00:49:12;;;;;;;12.27;6.38;;;9.90;99.90;;;;;;4977937;28;20038;-72
2022/07/28 00:51:39;;;;;;;13.80;7.45;;;9.90;99.90;;;;;;4995466;28;20448;-72
2022/07/28 00:54:05;;;;;;;11.57;5.93;;;9.90;99.90;;;;;;4978082;28;20042;-72
2022/07/28 00:56:32;;;;;;;8.70;5.63;;;9.90;99.90;;;;;;4995375;28;20050;-72
2022/07/28 00:58:58;;;;;;;6.80;5.85;;;9.90;99.90;;;;;;4992660;28;20113;-72
2022/07/28 01:01:24;;;;;;;8.18;6.53;;;9.90;99.90;;;;;;4995004;28;20122;-72
2022/07/28 01:04:00;;;;;;;7.85;4.35;;;9.90;99.90;;;;;;4977944;28;20046;-73
2022/07/28 01:06:34;;;;;;;7.80;6.03;;;10.00;99.90;;;;;;4961722;28;20039;-73
2022/07/28 01:09:22;;;;;;;7.80;5.18;;;10.00;99.90;;;;;;4977492;28;20528;-72
2022/07/28 01:11:56;;;;;;;7.47;4.57;;;10.00;99.90;;;;;;4994841;28;20113;-72
2022/07/28 01:14:49;;;;;;;5.88;5.28;;;9.90;99.90;;;;;;4961354;28;20551;-72
2022/07/28 01:17:34;;;;;;;6.40;4.90;;;9.90;99.90;;;;;;4977328;28;20053;-72
2022/07/28 01:20:36;;;;;;;8.85;5.35;;;9.90;99.90;;;;;;4977267;28;20038;-72
2022/07/28 01:23:05;;;;;;;7.93;5.18;;;9.90;99.90;;;;;;4977347;28;20493;-72
2022/07/28 01:25:40;;;;;;;7.60;5.85;;;9.90;99.90;;;;;;4994744;28;20049;-72
2022/07/28 01:28:47;;;;;;;7.95;4.85;;;9.90;99.90;;;;;;4986626;28;20046;-73
2022/07/28 01:31:18;;;;;;;5.82;4.63;;;9.90;99.90;;;;;;4980312;28;20046;-71
2022/07/28 01:34:09;;;;;;;10.70;5.45;;;9.90;99.90;;;;;;4980343;28;20034;-72
2022/07/28 01:36:39;;;;;;;;;;;9.90;99.90;;;;;;4996775;28;20077;-73
2022/07/28 01:39:04;;;;;;;8.45;5.07;;;10.00;99.90;;;;;;5013949;28;19921;-73
2022/07/28 01:41:33;;;;;;;11.43;5.28;;;10.00;99.90;;;;;;4980512;28;20053;-73
2022/07/28 01:44:07;;;;;;;8.30;5.40;;;10.00;99.90;;;;;;5013931;28;20484;-73
2022/07/28 01:46:34;;;;;;;6.82;5.18;;;9.90;99.90;;;;;;4980125;28;20178;-73
2022/07/28 01:49:01;;;;;;;6.32;4.47;;;9.80;99.90;;;;;;4996316;28;20046;-73
2022/07/28 01:51:29;;;;;;;47.17;8.10;;;9.70;99.90;;;;;;4996016;28;20128;-73
2022/07/28 01:53:59;;;;;;;8.05;4.60;;;9.70;99.90;;;;;;4996473;28;20046;-73
2022/07/28 01:56:27;;;;;;;6.68;5.00;;;9.60;99.90;;;;;;4995893;28;20045;-73
2022/07/28 01:58:54;;;;;;;8.38;5.43;;;9.60;99.90;;;;;;4993716;28;20496;-73
2022/07/28 02:01:22;;;;;;;8.13;5.25;;;9.60;99.90;;;;;;5013490;28;20566;-73
2022/07/28 02:03:50;;;;;;;10.07;5.70;;;9.50;99.90;;;;;;4996020;28;20038;-73
2022/07/28 02:06:18;;;;;;;8.18;6.00;;;9.60;99.90;;;;;;4996144;28;20084;-73
2022/07/28 02:08:45;;;;;;;7.45;5.88;;;9.60;99.90;;;;;;5013385;28;20133;-72
2022/07/28 02:13:57;;;;;;;9.10;6.10;;;9.60;99.90;;;;;;4995796;28;20248;-73
2022/07/28 02:16:26;;;;;;;8.70;6.50;;;9.60;99.90;;;;;;4995955;28;20100;-73
2022/07/28 02:18:54;;;;;;;9.88;6.45;;;9.60;99.90;;;;;;4996057;28;20076;-73
2022/07/28 02:21:24;;;;;;;8.07;6.03;;;9.70;99.90;;;;;;4995789;28;20502;-73
2022/07/28 02:23:51;;;;;;;9.80;5.37;;;9.60;99.90;;;;;;4995907;28;20034;-73
2022/07/28 02:26:20;;;;;;;6.68;5.25;;;9.60;99.90;;;;;;4995665;28;20041;-73
2022/07/28 02:28:50;;;;;;;7.40;5.53;;;9.60;99.90;;;;;;4989916;28;20042;-73
2022/07/28 02:31:23;;;;;;;7.77;4.77;;;9.60;99.90;;;;;;4995780;28;20085;-73
2022/07/28 02:33:50;;;;;;;5.53;4.75;;;9.60;99.90;;;;;;5013028;28;20072;-73
2022/07/28 02:36:24;;;;;;;5.10;3.78;;;9.70;99.90;;;;;;4995501;28;20133;-73
2022/07/28 02:38:53;;;;;;;6.30;4.07;;;9.70;99.90;;;;;;4995589;28;20087;-73
2022/07/28 02:41:27;;;;;;;6.20;5.05;;;9.80;99.90;;;;;;5012335;28;20045;-73
2022/07/28 02:43:58;;;;;;;5.95;4.10;;;9.80;99.90;;;;;;4995189;28;20129;-73
2022/07/28 02:46:39;;;;;;;4.53;3.10;;;9.80;99.90;;;;;;5013035;28;20042;-73
2022/07/28 02:49:11;;;;;;;3.10;2.30;;;9.80;99.90;;;;;;5012753;28;20346;-73
2022/07/28 02:51:39;;;;;;;2.85;2.30;;;9.80;99.90;;;;;;5012673;28;20500;-73
2022/07/28 02:54:05;;;;;;;4.05;2.75;;;9.70;99.90;;;;;;4995204;28;20480;-73
2022/07/28 02:56:32;;;;;;;3.17;2.22;;;9.70;99.90;;;;;;5012679;28;20046;-73
2022/07/28 02:58:59;;;;;;;3.75;2.50;;;9.70;99.90;;;;;;4976575;28;20041;-73
2022/07/28 03:01:25;;;;;;;2.42;1.90;;;9.70;99.90;;;;;;4995248;28;20396;-74
2022/07/28 03:03:52;;;;;;;1.83;1.52;;;9.60;99.90;;;;;;5012461;28;20041;-73
2022/07/28 03:06:19;;;;;;;1.73;1.48;;;9.60;99.90;;;;;;5012469;28;20041;-74
2022/07/28 03:08:45;;;;;;;2.10;1.58;;;9.60;99.90;;;;;;4978583;28;20068;-73
2022/07/28 03:11:13;;;;;;;3.15;1.52;;;9.60;99.90;;;;;;4994865;28;20432;-73
2022/07/28 03:13:39;;;;;;;2.33;1.92;;;9.50;99.90;;;;;;4978524;28;20172;-73
2022/07/28 03:16:05;;;;;;;2.28;2.00;;;9.60;99.90;;;;;;4995072;28;20112;-73
2022/07/28 03:18:32;;;;;;;2.33;2.00;;;9.50;99.90;;;;;;5012185;28;20038;-73
2022/07/28 03:20:58;;;;;;;2.30;2.00;;;9.50;99.90;;;;;;5012276;28;20042;-73
2022/07/28 03:23:31;;;;;;;3.13;1.90;;;9.40;99.90;;;;;;4978214;28;20555;-74
2022/07/28 03:26:05;;;;;;;2.38;1.77;;;9.40;99.90;;;;;;5012181;28;20583;-74
2022/07/28 03:28:32;;;;;;;4.13;2.17;;;9.40;99.90;;;;;;4992082;28;20112;-74
2022/07/28 03:31:04;;;;;;;3.80;2.47;;;9.30;99.90;;;;;;4994692;28;20048;-74
2022/07/28 03:33:31;;;;;;;6.57;2.60;;;9.20;99.90;;;;;;4994303;28;20046;-74
2022/07/28 03:36:01;;;;;;;4.40;3.22;;;9.20;99.90;;;;;;5012257;28;20411;-74
2022/07/28 03:38:44;;;;;;;7.00;3.47;;;9.20;99.90;;;;;;4994749;28;20065;-74
2022/07/28 03:41:12;;;;;;;7.97;4.90;;;9.20;99.90;;;;;;4978352;28;20046;-75
2022/07/28 03:43:38;;;;;;;5.93;4.78;;;9.20;99.90;;;;;;4994638;28;20470;-75
2022/07/28 03:46:06;;;;;;;5.60;3.97;;;9.20;99.90;;;;;;4978160;28;20077;-74
2022/07/28 03:48:33;;;;;;;4.72;3.80;;;9.20;99.90;;;;;;5012031;28;20104;-75
2022/07/28 03:50:59;;;;;;;6.78;4.53;;;9.20;99.90;;;;;;4994484;28;20455;-74
2022/07/28 03:53:27;;;;;;;7.90;5.00;;;9.10;99.90;;;;;;4997101;28;20076;-75
2022/07/28 03:55:53;;;;;;;13.52;5.57;;;9.10;99.90;;;;;;4998537;28;20076;-75
2022/07/28 03:58:21;;;;;;;9.02;5.40;;;9.10;99.90;;;;;;4995969;28;20053;-74
2022/07/28 04:00:48;;;;;;;9.75;6.43;;;9.10;99.90;;;;;;4998289;28;20120;-74
2022/07/28 04:03:15;;;;;;;162.68;16.13;;;9.10;99.90;;;;;;4998439;28;20041;-75
2022/07/28 04:05:41;;;;;;;275.40;18.77;;;9.10;99.90;;;;;;4998457;28;20423;-75
2022/07/28 04:08:07;;;;;;;23.75;4.78;;;9.10;99.90;;;;;;5015704;28;20064;-74
2022/07/28 04:10:32;;;;;;;6.38;4.70;;;9.00;99.90;;;;;;4998176;28;20046;-75
2022/07/28 04:12:59;;;;;;;8.90;3.80;;;8.90;99.90;;;;;;4997981;28;20103;-75
2022/07/28 04:15:26;;;;;;;8.57;5.45;;;8.90;99.90;;;;;;4998016;28;20042;-75
2022/07/28 04:17:53;;;;;;;6.43;4.30;;;8.90;99.90;;;;;;4997909;28;20060;-75
2022/07/28 04:20:21;;;;;;;5.82;4.28;;;8.90;99.90;;;;;;4998177;28;20037;-75
2022/07/28 04:22:48;;;;;;;5.32;3.25;;;9.00;99.90;;;;;;4998041;28;20077;-75
2022/07/28 04:25:16;;;;;;;4.72;3.53;;;9.10;99.90;;;;;;5015545;28;20049;-75
2022/07/28 04:27:43;;;;;;;4.82;3.47;;;9.10;99.90;;;;;;4994558;28;20105;-75
2022/07/28 04:30:17;;;;;;;5.07;3.25;;;9.20;99.90;;;;;;4995262;28;20048;-75
2022/07/28 04:32:48;;;;;;;7.15;3.60;;;9.20;99.90;;;;;;5015397;28;20038;-75
2022/07/28 04:35:15;;;;;;;6.43;3.65;;;9.30;99.90;;;;;;4998045;28;20475;-75
2022/07/28 04:37:41;;;;;;;4.70;3.47;;;9.30;99.90;;;;;;4981350;28;20130;-75
2022/07/28 04:40:09;;;;;;;4.55;3.03;;;9.30;99.90;;;;;;5015049;28;20045;-75
2022/07/28 04:42:37;;;;;;;5.10;3.88;;;9.40;99.90;;;;;;4997759;28;20041;-75
2022/07/28 04:45:07;;;;;;;5.28;3.92;;;9.40;99.90;;;;;;5014915;28;20563;-76
2022/07/28 04:47:34;;;;;;;4.60;3.72;;;9.30;99.90;;;;;;5015040;28;20129;-76
2022/07/28 04:50:00;;;;;;;6.93;5.32;;;9.40;99.90;;;;;;5015177;28;20092;-75
2022/07/28 04:52:25;;;;;;;8.00;4.63;;;9.40;99.90;;;;;;4997380;28;20049;-75
2022/07/28 04:54:52;;;;;;;7.47;5.22;;;9.40;99.90;;;;;;4997123;28;20048;-75
2022/07/28 04:57:19;;;;;;;9.88;5.28;;;9.60;99.90;;;;;;5014753;28;20096;-75
2022/07/28 04:59:45;;;;;;;7.40;5.18;;;9.70;99.90;;;;;;5012380;28;20037;-75
2022/07/28 05:02:11;;;;;;;6.75;4.72;;;9.80;99.90;;;;;;4981206;28;20038;-75
2022/07/28 05:04:37;;;;;;;7.32;5.40;;;9.80;99.90;;;;;;4980563;28;20129;-75
2022/07/28 05:07:04;;;;;;;7.93;5.35;;;9.90;99.90;;;;;;5014799;28;20459;-75
2022/07/28 05:09:30;;;;;;;7.95;5.18;;;10.00;99.90;;;;;;5014352;28;20050;-75
2022/07/28 05:11:57;;;;;;;11.02;5.85;;;10.10;99.90;;;;;;5014891;28;20050;-75
2022/07/28 05:14:23;;;;;;;9.52;5.22;;;10.30;99.90;;;;;;4996918;28;20042;-75
2022/07/28 05:16:49;;;;;;;6.13;5.20;;;10.40;99.90;;;;;;4996855;28;20428;-75
2022/07/28 05:19:16;;;;;;;6.78;4.47;;;10.50;99.90;;;;;;4996878;28;20076;-74
2022/07/28 05:21:42;;;;;;;7.63;4.65;;;10.60;99.90;;;;;;4997722;28;20495;-74
2022/07/28 05:24:08;;;;;;;5.07;4.50;;;10.80;99.90;;;;;;5015380;28;20038;-74
2022/07/28 05:26:34;;;;;;;5.28;4.15;;;10.90;99.90;;;;;;4997937;28;20045;-74
2022/07/28 05:28:59;;;;;;;9.18;4.45;;;11.10;99.90;;;;;;4994295;28;20065;-73
2022/07/28 05:31:25;;;;;;;5.38;3.85;;;11.20;99.90;;;;;;4978238;28;20042;-73
2022/07/28 05:33:51;;;;;;;7.05;4.00;;;11.40;99.90;;;;;;4978179;28;20049;-73
2022/07/28 05:36:18;;;;;;;6.53;3.85;;;11.50;99.90;;;;;;4961787;28;20049;-73
2022/07/28 05:38:43;;;;;;;6.32;4.35;;;11.60;99.90;;;;;;4977838;28;20085;-73
2022/07/28 05:41:09;;;;;;;7.18;3.95;;;11.80;99.90;;;;;;4978300;28;20042;-73
2022/07/28 05:43:36;;;;;;;6.25;4.70;;;11.90;99.90;;;;;;4995160;28;20392;-73
2022/07/28 05:46:03;;;;;;;6.75;4.03;;;12.00;99.90;;;;;;4977963;28;20049;-73
2022/07/28 05:48:29;;;;;;;6.05;4.30;;;12.20;99.90;;;;;;4977745;28;20050;-73
2022/07/28 05:50:55;;;;;;;5.10;4.00;;;12.30;99.90;;;;;;4962127;28;20097;-72
2022/07/28 05:53:22;;;;;;;8.40;4.22;;;12.50;99.90;;;;;;4977872;28;20046;-63
2022/07/28 05:55:48;;;;;;;9.63;4.20;;;12.60;99.90;;;;;;4977231;28;20077;-63
2022/07/28 05:58:14;;;;;;;6.63;3.55;;;12.70;99.90;;;;;;4992846;28;20930;-63
2022/07/28 06:00:40;;;;;;;6.63;4.00;;;12.80;99.90;;;;;;4977803;28;20117;-63
2022/07/28 06:03:06;;;;;;;6.45;3.65;;;12.90;99.90;;;;;;4961465;28;20050;-63
2022/07/28 06:05:32;;;;;;;6.55;3.28;;;13.00;99.90;;;;;;4994802;28;20097;-63
2022/07/28 06:07:59;;;;;;;5.45;3.40;;;13.10;99.90;;;;;;4977213;28;20539;-63
2022/07/28 06:10:57;;;;;;;6.10;2.97;;;13.30;99.90;;;;;;4977544;28;20568;-63
2022/07/28 06:13:14;;;;;;;5.20;3.30;;;13.30;99.90;;;;;;4977197;28;20050;-63
2022/07/28 06:15:40;;;;;;;5.00;3.13;;;13.40;99.90;;;;;;4976431;28;20038;-63
2022/07/28 06:18:06;;;;;;;5.00;3.00;;;13.50;99.90;;;;;;4994772;28;20192;-63
2022/07/28 06:20:34;;;;;;;5.38;3.40;;;13.60;99.90;;;;;;4960999;28;20042;-63
2022/07/28 06:23:00;;;;;;;7.03;3.28;;;13.70;99.90;;;;;;4977367;28;20074;-63
2022/07/28 06:25:27;;;;;;;5.57;2.60;;;13.80;99.90;;;;;;4976805;28;20099;-63
2022/07/28 06:27:55;;;;;;;4.93;2.95;;;13.90;99.90;;;;;;4985802;28;20064;-63
2022/07/28 06:30:22;;;;;;;5.32;2.80;;;14.00;99.90;;;;;;4995847;28;20103;-63
2022/07/28 06:32:48;;;;;;;6.40;2.80;;;14.10;99.90;;;;;;4996698;28;20446;-63
2022/07/28 06:35:15;;;;;;;7.30;2.92;;;14.20;99.90;;;;;;4996227;28;20042;-63
2022/07/28 06:37:42;;;;;;;7.72;2.90;;;14.30;99.90;;;;;;5014012;28;20053;-63
2022/07/28 06:40:10;;;;;;;6.30;2.60;;;14.40;99.90;;;;;;5014021;28;20455;-63
2022/07/28 06:42:37;;;;;;;5.38;2.65;;;14.50;99.90;;;;;;5013927;28;20045;-62
2022/07/28 06:45:04;;;;;;;6.55;3.00;;;14.60;99.90;;;;;;4996083;28;20037;-63
2022/07/28 06:47:30;;;;;;;7.70;2.40;;;14.60;99.90;;;;;;4979232;28;20050;-63
2022/07/28 06:49:55;;;;;;;9.32;2.40;;;14.70;99.90;;;;;;4994833;28;20045;-63
2022/07/28 06:52:21;;;;;;;3.33;1.98;;;14.80;99.90;;;;;;4995164;28;20048;-63
2022/07/28 06:54:50;;;;;;;6.10;2.45;;;14.80;99.90;;;;;;4978797;28;20045;-62
2022/07/28 06:57:20;;;;;;;5.13;2.15;;;14.90;99.90;;;;;;5012793;28;20054;-63
2022/07/28 06:59:47;;;;;;;5.90;2.00;;;15.00;99.90;;;;;;4976329;28;20392;-63
2022/07/28 07:02:14;;;;;;;3.65;1.77;;;15.00;99.90;;;;;;4978735;28;20044;-63
2022/07/28 07:04:39;;;;;;;4.45;1.70;;;15.10;99.90;;;;;;4995019;28;20041;-63
2022/07/28 07:07:05;;;;;;;4.50;1.70;;;15.20;99.90;;;;;;4994911;28;20099;-62
2022/07/28 07:09:32;;;;;;;3.58;1.58;;;15.30;99.90;;;;;;5012917;28;20544;-62
2022/07/28 07:11:58;;;;;;;4.90;2.15;;;15.40;99.90;;;;;;4994985;28;20060;-63
2022/07/28 07:14:24;;;;;;;5.35;2.10;;;15.60;99.90;;;;;;5013153;28;20065;-63
2022/07/28 07:16:50;;;;;;;5.18;2.30;;;15.80;99.90;;;;;;4995410;28;20512;-63
2022/07/28 07:19:16;;;;;;;4.38;1.90;;;15.90;99.90;;;;;;4995610;28;20077;-63
2022/07/28 07:21:42;;;;;;;10.65;1.90;;;16.00;99.90;;;;;;4995788;28;20038;-63
2022/07/28 07:24:10;;;;;;;7.53;2.28;;;16.10;99.90;;;;;;5012389;28;20041;-63
2022/07/28 07:26:37;;;;;;;4.93;1.40;;;16.10;99.90;;;;;;4978161;28;20064;-63
2022/07/28 07:29:04;;;;;;;7.55;1.80;;;16.30;99.90;;;;;;4972704;28;20053;-63
2022/07/28 07:31:31;;;;;;;3.80;1.23;;;16.50;99.90;;;;;;4959132;28;20128;-63
2022/07/28 07:33:58;;;;;;;3.65;1.35;;;16.60;99.90;;;;;;4992464;28;20488;-63
2022/07/28 07:36:23;;;;;;;3.45;1.50;;;16.70;99.90;;;;;;4959060;28;20046;-63
2022/07/28 07:38:49;;;;;;;8.07;1.80;;;16.70;99.90;;;;;;4975042;28;20394;-65
2022/07/28 07:41:16;;;;;;;6.22;1.77;;;16.80;99.90;;;;;;4975238;28;20039;-64
2022/07/28 07:43:42;;;;;;;3.50;1.23;;;16.80;99.90;;;;;;4992475;28;20078;-63
2022/07/28 07:46:08;;;;;;;3.13;1.05;;;16.90;99.90;;;;;;4992711;28;20078;-64
2022/07/28 07:48:34;;;;;;;5.05;1.33;;;17.30;99.90;;;;;;4959774;28;20792;-64
2022/07/28 07:50:59;;;;;;;4.80;1.13;;;17.80;99.90;;;;;;4972530;28;20046;-64
2022/07/28 07:53:25;;;;;;;5.38;1.38;;;18.20;99.90;;;;;;4992169;28;20031;-64
2022/07/28 07:55:51;;;;;;;3.33;1.15;;;18.60;99.90;;;;;;4994945;28;20391;-64
2022/07/28 07:58:17;;;;;;;3.85;1.20;;;18.80;99.90;;;;;;4992838;28;20045;-64
2022/07/28 08:00:43;;;;;;;4.82;0.93;;;19.20;99.90;;;;;;4994923;28;20038;-64
2022/07/28 08:03:09;;;;;;;2.13;1.00;;;19.40;99.90;;;;;;4995120;28;20076;-64
2022/07/28 08:05:35;;;;;;;5.35;1.30;;;19.60;99.90;;;;;;4978901;28;20037;-64
2022/07/28 08:08:01;;;;;;;4.00;1.35;;;19.80;99.90;;;;;;4989429;28;20058;-64
2022/07/28 08:10:27;;;;;;;3.40;1.40;;;20.10;99.90;;;;;;4975841;28;20046;-64
2022/07/28 08:12:52;;;;;;;2.00;0.90;;;20.30;99.90;;;;;;4975586;28;20562;-65
2022/07/28 08:15:18;;;;;;;3.83;1.50;;;20.50;99.90;;;;;;4972662;28;20101;-66
2022/07/28 08:17:44;;;;;;;3.20;1.60;;;20.60;99.90;;;;;;4975299;28;20049;-68
2022/07/28 08:20:11;;;;;;;5.35;1.50;;;20.50;99.90;;;;;;4975545;28;20042;-65
2022/07/28 08:22:47;;;;;;;3.35;1.60;;;20.60;99.90;;;;;;4975715;28;20126;-65
2022/07/28 08:25:14;;;;;;;6.97;1.45;;;20.70;99.90;;;;;;4972112;28;20088;-65
2022/07/28 08:27:40;;;;;;;2.75;1.13;;;20.90;99.90;;;;;;4975189;28;20620;-66
2022/07/28 08:30:07;;;;;;;3.60;1.30;;;20.90;99.90;;;;;;4957326;28;20043;-64
2022/07/28 08:32:32;;;;;;;3.70;1.25;;;20.80;99.90;;;;;;4975245;28;20077;-63
2022/07/28 08:34:58;;;;;;;4.15;1.00;;;20.60;99.90;;;;;;4992840;28;20081;-63
2022/07/28 08:37:24;;;;;;;3.45;1.00;;;20.50;99.90;;;;;;4959086;28;20043;-64
2022/07/28 08:39:50;;;;;;;2.70;0.80;;;20.40;99.90;;;;;;4995737;28;20097;-63
2022/07/28 08:43:06;;;;;;;4.68;0.90;;;20.20;99.90;;;;;;4996308;28;20038;-66
2022/07/28 08:45:33;;;;;;;2.45;0.80;;;19.70;99.90;;;;;;4935767;28;20050;-63
2022/07/28 08:48:00;;;;;;;3.58;0.93;;;19.30;99.90;;;;;;4996328;28;20042;-63
2022/07/28 08:50:28;;;;;;;3.95;0.75;;;19.10;99.90;;;;;;4963007;28;20069;-63
2022/07/28 08:52:55;;;;;;;2.13;0.70;;;19.00;99.90;;;;;;4996022;28;20623;-65
2022/07/28 08:55:24;;;;;;;4.57;1.00;;;18.90;99.90;;;;;;4996423;28;20042;-62
2022/07/28 08:57:53;;;;;;;;;;;18.90;99.90;;;;;;4996178;28;20034;-63
2022/07/28 09:00:20;;;;;;;4.10;1.23;;;18.90;99.90;;;;;;4976960;28;20624;-65
2022/07/28 09:02:48;;;;;;;1.67;0.60;;;18.90;99.90;;;;;;4995986;28;20046;-64
2022/07/28 09:05:14;;;;;;;3.63;0.80;;;18.90;99.90;;;;;;4978518;28;20129;-63
2022/07/28 09:07:41;;;;;;;2.83;1.08;;;18.90;99.90;;;;;;4959430;28;20217;-63
2022/07/28 09:10:10;;;;;;;2.80;0.70;;;18.80;99.90;;;;;;4964236;28;20133;-64
2022/07/28 09:12:38;;;;;;;2.67;0.82;;;18.70;99.90;;;;;;4995822;28;20042;-62
2022/07/28 09:15:06;;;;;;;2.97;0.80;;;18.60;99.90;;;;;;4995674;28;20065;-63
2022/07/28 09:17:34;;;;;;;4.32;1.05;;;18.40;99.90;;;;;;4978231;28;20373;-63
2022/07/28 09:20:00;;;;;;;3.13;0.93;;;18.30;99.90;;;;;;4962188;28;20100;-62
2022/07/28 09:22:26;;;;;;;3.80;1.05;;;18.20;99.90;;;;;;4995557;28;20038;-63
2022/07/28 09:24:52;;;;;;;2.85;1.02;;;18.10;99.90;;;;;;4962059;28;20038;-64
2022/07/28 09:27:19;;;;;;;3.50;1.02;;;17.90;99.90;;;;;;4956502;28;20047;-63
2022/07/28 09:29:47;;;;;;;4.68;1.33;;;17.80;99.90;;;;;;4956462;28;20046;-63
2022/07/28 09:32:15;;;;;;;5.13;1.90;;;17.60;99.90;;;;;;4976053;28;20045;-64
2022/07/28 09:34:41;;;;;;;3.38;1.17;;;17.50;99.90;;;;;;4958848;28;20042;-64
2022/07/28 09:37:22;;;;;;;4.05;1.13;;;17.40;99.90;;;;;;4942416;28;20079;-64
2022/07/28 09:39:51;;;;;;;5.88;1.42;;;17.40;99.90;;;;;;4958512;28;20133;-63
2022/07/28 09:42:18;;;;;;;1.35;0.80;;;17.30;99.90;;;;;;4975800;28;20599;-63
2022/07/28 09:44:44;;;;;;;2.75;0.98;;;17.40;99.90;;;;;;4958608;28;20054;-65
2022/07/28 09:47:39;;;;;;;4.55;1.10;;;17.40;99.90;;;;;;4958401;28;20104;-64
2022/07/28 09:50:05;;;;;;;4.38;1.23;;;17.60;99.90;;;;;;4956144;28;20057;-65
2022/07/28 09:52:33;;;;;;;5.05;1.30;;;17.60;99.90;;;;;;4975625;28;20490;-66
2022/07/28 09:55:00;;;;;;;6.28;1.45;;;17.60;99.90;;;;;;4958118;28;20054;-64
2022/07/28 09:57:27;;;;;;;4.40;1.30;;;17.70;99.90;;;;;;4958138;28;20038;-64
2022/07/28 09:59:53;;;;;;;2.67;1.17;;;17.70;99.90;;;;;;4955888;28;20045;-64
2022/07/28 10:02:32;;;;;;;2.83;1.00;;;17.80;99.90;;;;;;4958281;28;20034;-63
2022/07/28 10:04:59;;;;;;;4.53;1.17;;;17.90;99.90;;;;;;4975307;28;20481;-65
2022/07/28 10:07:30;;;;;;;1.95;0.93;;;18.10;99.90;;;;;;4958555;28;20047;-64
2022/07/28 10:10:07;;;;;;;3.67;1.00;;;18.30;99.90;;;;;;4977384;28;20050;-66
2022/07/28 10:12:37;;;;;;;3.15;1.08;;;18.60;99.90;;;;;;4994522;28;20129;-65
2022/07/28 10:18:01;;;;;;;5.88;1.63;;;19.00;99.90;;;;;;4976716;28;20042;-67
2022/07/28 10:20:27;;;;;;;3.42;1.15;;;19.10;99.90;;;;;;4994417;28;20053;-65
2022/07/28 10:23:05;;;;;;;3.08;1.08;;;19.20;99.90;;;;;;4960766;28;20042;-65
2022/07/28 10:25:32;;;;;;;2.22;1.00;;;19.40;99.90;;;;;;4977273;28;20085;-65
2022/07/28 10:28:00;;;;;;;2.53;0.90;;;19.70;99.90;;;;;;4992808;28;20038;-66
2022/07/28 10:30:28;;;;;;;2.20;0.85;;;19.80;99.90;;;;;;4960190;28;20046;-65
2022/07/28 10:32:57;;;;;;;1.00;0.50;;;19.90;99.90;;;;;;4994225;28;20125;-64
2022/07/28 10:35:25;;;;;;;4.70;0.90;;;19.90;99.90;;;;;;4976703;28;20112;-64
2022/07/28 10:38:09;;;;;;;2.35;0.80;;;20.00;99.90;;;;;;4976740;28;20042;-65
2022/07/28 10:40:40;;;;;;;2.83;0.90;;;20.00;99.90;;;;;;4977146;28;20046;-64
2022/07/28 10:43:07;;;;;;;2.67;0.90;;;20.10;99.90;;;;;;4994026;28;20038;-63
2022/07/28 10:45:34;;;;;;;1.73;0.85;;;20.30;99.90;;;;;;4976733;28;20038;-63
2022/07/28 10:48:02;;;;;;;2.38;0.70;;;20.60;99.90;;;;;;4976564;28;20077;-66
2022/07/28 10:50:28;;;;;;;2.92;0.98;;;20.90;99.90;;;;;;4976880;28;20042;-63
2022/07/28 10:52:55;;;;;;;4.95;0.90;;;21.10;99.90;;;;;;4960297;28;20484;-63
2022/07/28 10:55:45;;;;;;;2.00;0.90;;;21.30;99.90;;;;;;4976428;28;20069;-63
2022/07/28 10:58:20;;;;;;;2.10;0.82;;;21.60;99.90;;;;;;4974172;28;20129;-65
2022/07/28 11:00:51;;;;;;;2.65;0.77;;;21.70;99.90;;;;;;4959833;28;20042;-64
2022/07/28 11:03:36;;;;;;;1.60;0.70;;;21.80;99.60;;;;;;4976250;28;20046;-64
2022/07/28 11:06:35;;;;;;;1.73;0.70;;;21.90;99.90;;;;;;4960122;28;20489;-64
2022/07/28 11:09:16;;;;;;;2.97;1.23;;;22.00;99.00;;;;;;4993327;28;20058;-64
2022/07/28 11:11:42;;;;;;;2.97;0.90;;;22.10;97.40;;;;;;4976290;28;20125;-65
2022/07/28 11:14:35;;;;;;;2.45;0.82;;;22.30;99.00;;;;;;4993586;28;20053;-64
2022/07/28 11:17:05;;;;;;;2.08;0.60;;;22.50;97.00;;;;;;4957401;28;20046;-64
2022/07/28 11:19:51;;;;;;;1.30;0.80;;;22.60;98.30;;;;;;4976381;28;20074;-65
2022/07/28 11:22:17;;;;;;;2.97;0.73;;;22.70;96.40;;;;;;4975983;28;20038;-65
2022/07/28 11:25:01;;;;;;;2.10;0.80;;;22.60;97.80;;;;;;4976080;28;20096;-65
2022/07/28 11:27:39;;;;;;;3.92;0.80;;;22.70;97.80;;;;;;4993284;28;20056;-65
2022/07/28 11:30:05;;;;;;;1.65;0.65;;;22.70;98.00;;;;;;4991093;28;20046;-62
2022/07/28 11:32:54;;;;;;;2.55;0.82;;;22.70;96.30;;;;;;4975833;28;20049;-63
2022/07/28 11:35:50;;;;;;;3.15;0.70;;;22.70;95.50;;;;;;4960071;28;20515;-65
2022/07/28 11:38:16;;;;;;;3.65;0.90;;;22.70;96.10;;;;;;4985899;28;20049;-64
2022/07/28 11:40:51;;;;;;;3.17;0.77;;;22.70;97.80;;;;;;4993497;28;20039;-64
2022/07/28 11:43:20;;;;;;;1.92;0.90;;;22.70;97.80;;;;;;4959586;28;20140;-64
2022/07/28 11:46:14;;;;;;;4.03;0.90;;;22.70;97.40;;;;;;4959570;28;20493;-65
2022/07/28 11:48:46;;;;;;;2.35;0.85;;;22.60;94.70;;;;;;4992966;28;20042;-64
2022/07/28 11:51:12;;;;;;;2.15;1.00;;;22.30;96.10;;;;;;4975915;28;20077;-65
2022/07/28 11:53:54;;;;;;;1.55;0.68;;;22.00;95.50;;;;;;4975663;28;20050;-64
2022/07/28 11:56:26;;;;;;;1.90;0.77;;;21.80;95.00;;;;;;4975918;28;20049;-64
2022/07/28 11:59:00;;;;;;;3.78;0.90;;;21.70;95.50;;;;;;4973280;28;20050;-64
2022/07/28 12:01:26;;;;;;;3.05;0.90;;;21.60;95.00;;;;;;4993211;28;20038;-63
2022/07/28 12:03:54;;;;;;;3.42;1.00;;;21.60;94.50;;;;;;4959877;28;20109;-64
2022/07/28 12:06:22;;;;;;;1.98;0.90;;;21.50;94.60;;;;;;4975725;28;20547;-63
2022/07/28 12:08:59;;;;;;;3.85;0.98;;;21.40;95.40;;;;;;4970971;28;20058;-64
2022/07/28 12:11:29;;;;;;;2.03;0.90;;;21.40;95.40;;;;;;4995363;28;20034;-66
2022/07/28 12:13:59;;;;;;;2.88;1.10;;;21.30;95.30;;;;;;5014741;28;20041;-65
2022/07/28 12:16:27;;;;;;;4.55;1.00;;;21.20;95.30;;;;;;4998885;28;20052;-65
2022/07/28 12:18:53;;;;;;;1.95;0.98;;;21.20;94.90;;;;;;4999105;28;20030;-64
2022/07/28 12:21:54;;;;;;;1.90;0.80;;;21.20;95.10;;;;;;4999037;28;20144;-64
2022/07/28 12:24:31;;;;;;;1.65;0.90;;;21.10;93.30;;;;;;4917440;29;20559;-63
2022/07/28 12:26:59;;;;;;;2.00;0.80;;;21.00;93.40;;;;;;5003139;28;20447;-64
2022/07/28 12:29:30;;;;;;;3.33;0.95;;;20.90;94.50;;;;;;4996491;28;20524;-64
2022/07/28 12:32:03;;;;;;;3.22;0.90;;;21.10;96.20;;;;;;5016288;28;20050;-64
2022/07/28 12:34:31;;;;;;;3.78;0.80;;;21.50;94.30;;;;;;5016142;28;20703;-65
2022/07/28 12:37:00;;;;;;;2.08;0.60;;;21.70;94.00;;;;;;4998529;28;20056;-65
2022/07/28 12:39:29;;;;;;;3.70;1.08;;;22.00;93.30;;;;;;5016188;28;20065;-63
2022/07/28 12:42:06;;;;;;;8.60;1.33;;;22.00;93.00;;;;;;4995076;28;20099;-64
2022/07/28 12:44:37;;;;;;;1.13;0.45;;;21.70;93.70;;;;;;5014670;28;20074;-65
2022/07/28 12:47:06;;;;;;;3.00;0.75;;;21.40;92.70;;;;;;4998660;28;20488;-64
2022/07/28 12:49:32;;;;;;;3.85;0.82;;;21.10;91.70;;;;;;4998585;28;20399;-64
2022/07/28 12:52:18;;;;;;;1.65;0.50;;;20.90;91.50;;;;;;5016010;28;20443;-64
2022/07/28 12:54:44;;;;;;;4.78;0.93;;;20.80;92.30;;;;;;4981934;28;20444;-64
2022/07/28 12:57:10;;;;;;;2.15;0.55;;;20.70;92.90;;;;;;4998057;28;20097;-65
2022/07/28 12:59:37;;;;;;;3.92;0.80;;;20.80;92.60;;;;;;4995861;28;20121;-65
2022/07/28 13:02:06;;;;;;;2.85;0.73;;;20.90;93.30;;;;;;4998004;28;20034;-65
2022/07/28 13:04:47;;;;;;;1.60;0.70;;;21.10;92.80;;;;;;4998140;28;20384;-64
2022/07/28 13:07:20;;;;;;;9.05;1.30;;;21.00;92.00;;;;;;4997999;28;20113;-65